createdAt,value
2018-08-24T00:00:18.745Z,4.00
2018-08-24T00:02:47.162Z,4.10
2018-08-24T00:05:15.600Z,4.00
2018-08-24T00:07:44.002Z,5.27
2018-08-24T00:10:12.393Z,4.30
2018-08-24T00:12:40.803Z,5.57
2018-08-24T00:15:09.215Z,6.13
2018-08-24T00:17:37.682Z,4.93
2018-08-24T00:20:06.160Z,5.43
2018-08-24T00:22:34.551Z,6.50
2018-08-24T00:25:02.953Z,6.47
2018-08-24T00:27:31.379Z,7.40
2018-08-24T00:29:59.797Z,6.77
2018-08-24T00:32:28.239Z,6.77
2018-08-24T00:34:56.664Z,4.77
2018-08-24T00:37:25.075Z,7.73
2018-08-24T00:39:53.445Z,5.30
2018-08-24T00:42:21.875Z,5.67
2018-08-24T00:44:50.353Z,6.90
2018-08-24T00:47:18.747Z,6.77
2018-08-24T00:49:47.172Z,8.53
2018-08-24T00:52:15.624Z,8.90
2018-08-24T00:54:44.005Z,6.80
2018-08-24T00:57:12.416Z,7.10
2018-08-24T00:59:40.837Z,7.13
2018-08-24T01:02:09.244Z,6.23
2018-08-24T01:04:37.704Z,6.63
2018-08-24T01:07:11.635Z,5.60
2018-08-24T01:09:40.761Z,5.73
2018-08-24T01:12:10.136Z,4.57
2018-08-24T01:14:39.463Z,7.83
2018-08-24T01:17:13.459Z,6.90
2018-08-24T01:19:42.358Z,6.40
2018-08-24T01:22:10.798Z,5.53
2018-08-24T01:24:39.229Z,7.50
2018-08-24T01:27:08.321Z,6.80
2018-08-24T01:29:37.953Z,7.93
2018-08-24T01:32:06.772Z,7.13
2018-08-24T01:34:36.047Z,5.57
2018-08-24T01:37:04.612Z,7.13
2018-08-24T01:39:33.427Z,7.80
2018-08-24T01:42:01.840Z,6.90
2018-08-24T01:44:30.602Z,7.07
2018-08-24T01:47:02.340Z,7.37
2018-08-24T01:49:30.756Z,8.50
2018-08-24T01:51:59.144Z,9.03
2018-08-24T01:54:27.567Z,7.10
2018-08-24T01:56:55.963Z,6.40
2018-08-24T01:59:24.355Z,8.57
2018-08-24T02:01:52.851Z,7.40
2018-08-24T02:04:21.247Z,7.77
2018-08-24T02:06:49.648Z,7.23
2018-08-24T02:09:21.915Z,10.80
2018-08-24T02:11:50.909Z,5.90
2018-08-24T02:14:54.455Z,9.47
2018-08-24T02:17:28.310Z,10.73
2018-08-24T02:20:02.119Z,7.73
2018-08-24T02:22:30.575Z,7.80
2018-08-24T02:24:58.960Z,8.37
2018-08-24T02:27:27.425Z,11.00
2018-08-24T02:29:56.869Z,7.47
2018-08-24T02:32:25.484Z,8.73
2018-08-24T02:34:55.536Z,9.17
2018-08-24T02:37:24.006Z,7.67
2018-08-24T02:39:52.428Z,6.20
2018-08-24T02:42:20.869Z,7.47
2018-08-24T02:44:49.291Z,8.43
2018-08-24T02:47:19.943Z,9.60
2018-08-24T02:49:48.371Z,8.70
2018-08-24T02:52:16.765Z,6.77
2018-08-24T02:54:45.190Z,6.83
2018-08-24T02:57:13.593Z,8.30
2018-08-24T02:59:42.005Z,8.70
2018-08-24T03:02:10.526Z,8.37
2018-08-24T03:04:38.961Z,10.63
2018-08-24T03:07:07.408Z,8.93
2018-08-24T03:09:35.823Z,7.70
2018-08-24T03:12:04.256Z,6.40
2018-08-24T03:14:32.648Z,6.70
2018-08-24T03:17:06.487Z,9.90
2018-08-24T03:19:35.016Z,10.50
2018-08-24T03:22:03.448Z,8.97
2018-08-24T03:24:31.878Z,8.50
2018-08-24T03:27:00.280Z,9.13
2018-08-24T03:29:28.932Z,8.47
2018-08-24T03:31:57.339Z,8.83
2018-08-24T03:34:25.751Z,8.77
2018-08-24T03:36:54.169Z,9.77
2018-08-24T03:39:22.587Z,9.87
2018-08-24T03:41:51.031Z,7.90
2018-08-24T03:44:19.439Z,8.33
2018-08-24T03:46:48.003Z,8.97
2018-08-24T03:49:19.727Z,7.33
2018-08-24T03:51:48.136Z,7.97
2018-08-24T03:54:22.675Z,9.37
2018-08-24T03:56:54.312Z,10.17
2018-08-24T03:59:23.229Z,8.47
2018-08-24T04:01:52.102Z,8.03
2018-08-24T04:04:20.499Z,8.57
2018-08-24T04:06:49.202Z,8.50
2018-08-24T04:09:17.617Z,11.20
2018-08-24T04:11:46.384Z,8.73
2018-08-24T04:14:14.817Z,8.30
2018-08-24T04:16:48.652Z,8.27
2018-08-24T04:19:23.661Z,11.13
2018-08-24T04:21:52.189Z,10.23
2018-08-24T04:24:20.618Z,8.87
2018-08-24T04:26:49.102Z,10.83
2018-08-24T04:29:17.519Z,8.43
2018-08-24T04:31:45.992Z,10.60
2018-08-24T04:34:15.571Z,10.53
2018-08-24T04:36:44.035Z,7.83
2018-08-24T04:39:13.205Z,11.43
2018-08-24T04:41:42.399Z,8.80
2018-08-24T04:44:11.395Z,8.50
2018-08-24T04:46:39.852Z,9.17
2018-08-24T04:49:08.575Z,10.00
2018-08-24T04:51:37.167Z,11.33
2018-08-24T04:54:05.552Z,7.90
2018-08-24T04:56:34.007Z,7.50
2018-08-24T04:59:02.708Z,9.87
2018-08-24T05:01:31.129Z,7.43
2018-08-24T05:04:00.204Z,8.57
2018-08-24T05:06:28.770Z,6.13
2018-08-24T05:08:57.195Z,9.00
2018-08-24T05:11:25.661Z,8.27
2018-08-24T05:13:54.059Z,8.30
2018-08-24T05:16:22.472Z,7.30
2018-08-24T05:18:50.907Z,6.50
2018-08-24T05:21:19.336Z,10.63
2018-08-24T05:23:47.819Z,7.17
2018-08-24T05:26:16.206Z,8.33
2018-08-24T05:28:44.596Z,7.90
2018-08-24T05:31:12.985Z,10.07
2018-08-24T05:33:41.407Z,5.53
2018-08-24T05:36:09.832Z,7.13
2018-08-24T05:38:38.231Z,7.40
2018-08-24T05:41:06.642Z,7.10
2018-08-24T05:43:35.035Z,6.73
2018-08-24T05:46:03.410Z,4.93
2018-08-24T05:48:31.808Z,7.97
2018-08-24T05:51:00.184Z,10.20
2018-08-24T05:53:31.731Z,11.00
2018-08-24T05:56:00.127Z,6.50
2018-08-24T05:58:28.498Z,8.10
2018-08-24T06:00:56.891Z,7.67
2018-08-24T06:03:25.254Z,6.20
2018-08-24T06:05:58.973Z,7.07
2018-08-24T06:08:27.402Z,8.23
2018-08-24T06:10:55.881Z,7.20
2018-08-24T06:13:24.327Z,7.33
2018-08-24T06:15:52.742Z,8.40
2018-08-24T06:18:21.110Z,6.43
2018-08-24T06:20:49.488Z,6.60
2018-08-24T06:23:17.950Z,6.77
2018-08-24T06:25:46.338Z,7.83
2018-08-24T06:28:14.706Z,3.67
2018-08-24T06:30:43.094Z,6.20
2018-08-24T06:33:11.470Z,6.17
2018-08-24T06:35:39.894Z,7.00
2018-08-24T06:38:08.292Z,5.30
2018-08-24T06:40:36.695Z,4.27
2018-08-24T06:43:05.085Z,5.87
2018-08-24T06:45:33.549Z,5.47
2018-08-24T06:48:02.097Z,6.10
2018-08-24T06:50:30.528Z,5.60
2018-08-24T06:52:58.957Z,5.17
2018-08-24T06:55:27.474Z,6.37
2018-08-24T06:57:55.931Z,4.67
2018-08-24T07:00:30.415Z,6.40
2018-08-24T07:02:59.264Z,4.90
2018-08-24T07:05:27.746Z,7.87
2018-08-24T07:07:56.139Z,6.10
2018-08-24T07:10:24.609Z,5.23
2018-08-24T07:12:53.127Z,5.20
2018-08-24T07:15:21.566Z,6.87
2018-08-24T07:17:55.420Z,3.63
2018-08-24T07:20:23.831Z,5.77
2018-08-24T07:22:52.225Z,4.37
2018-08-24T07:25:20.681Z,3.47
2018-08-24T07:27:49.112Z,4.27
2018-08-24T07:30:17.491Z,4.80
2018-08-24T07:32:45.964Z,6.23
2018-08-24T07:35:14.694Z,4.83
2018-08-24T07:37:43.191Z,5.77
2018-08-24T07:40:11.851Z,7.03
2018-08-24T07:42:40.280Z,3.73
2018-08-24T07:45:08.689Z,6.17
2018-08-24T07:47:37.090Z,5.63
2018-08-24T07:50:05.705Z,3.80
2018-08-24T07:52:34.109Z,8.17
2018-08-24T07:55:02.583Z,3.83
2018-08-24T07:57:31.171Z,5.13
2018-08-24T07:59:59.601Z,5.53
2018-08-24T08:02:33.550Z,5.97
2018-08-24T08:05:02.086Z,7.30
2018-08-24T08:07:30.459Z,3.83
2018-08-24T08:09:58.892Z,7.77
2018-08-24T08:12:27.351Z,4.07
2018-08-24T08:15:01.182Z,4.60
2018-08-24T08:17:29.617Z,4.57
2018-08-24T08:19:58.024Z,6.10
2018-08-24T08:22:26.514Z,3.57
2018-08-24T08:24:54.927Z,4.73
2018-08-24T08:27:23.344Z,6.67
2018-08-24T08:29:57.087Z,3.13
2018-08-24T08:32:25.502Z,5.87
2018-08-24T08:34:54.342Z,3.80
2018-08-24T08:37:23.581Z,5.40
2018-08-24T08:39:52.588Z,4.67
2018-08-24T08:42:21.543Z,4.53
2018-08-24T08:44:49.954Z,2.87
2018-08-24T08:47:18.368Z,3.73
2018-08-24T08:49:46.789Z,4.17
2018-08-24T08:52:15.215Z,4.67
2018-08-24T08:54:43.626Z,5.37
2018-08-24T08:57:12.076Z,5.00
2018-08-24T08:59:40.720Z,4.03
2018-08-24T09:02:10.249Z,3.33
2018-08-24T09:04:39.527Z,2.53
2018-08-24T09:07:07.986Z,3.90
2018-08-24T09:09:36.808Z,4.93
2018-08-24T09:12:05.816Z,3.40
2018-08-24T09:14:34.420Z,3.57
2018-08-24T09:17:08.313Z,4.77
2018-08-24T09:19:42.221Z,3.63
2018-08-24T09:22:15.903Z,5.70
2018-08-24T09:24:49.633Z,3.33
2018-08-24T09:27:23.358Z,3.43
2018-08-24T09:29:52.000Z,3.47
2018-08-24T09:32:20.480Z,3.80
2018-08-24T09:34:49.031Z,4.20
2018-08-24T09:37:22.910Z,2.70
2018-08-24T09:39:51.383Z,4.23
2018-08-24T09:42:19.808Z,2.73
2018-08-24T09:44:48.236Z,4.80
2018-08-24T09:47:22.053Z,6.10
2018-08-24T09:49:50.546Z,4.80
2018-08-24T09:52:28.251Z,3.20
2018-08-24T09:54:57.257Z,5.13
2018-08-24T09:57:25.695Z,5.73
2018-08-24T09:59:54.212Z,6.20
2018-08-24T10:02:24.885Z,3.67
2018-08-24T10:04:58.670Z,6.17
2018-08-24T10:07:32.611Z,4.50
2018-08-24T10:10:01.664Z,6.20
2018-08-24T10:12:34.511Z,5.03
2018-08-24T10:15:03.195Z,3.63
2018-08-24T10:17:31.696Z,3.30
2018-08-24T10:20:00.147Z,3.03
2018-08-24T10:22:28.574Z,4.10
2018-08-24T10:24:57.003Z,2.97
2018-08-24T10:27:25.452Z,4.73
2018-08-24T10:29:53.893Z,3.53
2018-08-24T10:32:22.321Z,3.93
2018-08-24T10:34:50.742Z,6.27
2018-08-24T10:37:19.292Z,4.87
2018-08-24T10:39:47.719Z,5.83
2018-08-24T10:42:16.170Z,4.50
2018-08-24T10:44:44.589Z,3.37
2018-08-24T10:47:13.096Z,4.50
2018-08-24T10:49:41.527Z,5.40
2018-08-24T10:52:09.964Z,4.33
2018-08-24T10:54:38.348Z,5.17
2018-08-24T10:57:06.842Z,4.10
2018-08-24T10:59:35.255Z,2.60
2018-08-24T11:02:07.645Z,3.23
2018-08-24T11:04:36.077Z,3.07
2018-08-24T11:07:04.540Z,3.70
2018-08-24T11:09:33.828Z,3.53
2018-08-24T11:12:02.325Z,3.53
2018-08-24T11:14:30.842Z,4.03
2018-08-24T11:16:59.463Z,3.03
2018-08-24T11:19:27.878Z,4.77
2018-08-24T11:21:56.288Z,3.53
2018-08-24T11:24:24.753Z,3.93
2018-08-24T11:26:53.159Z,3.23
2018-08-24T11:29:21.637Z,3.47
2018-08-24T11:31:50.076Z,2.97
2018-08-24T11:34:18.481Z,2.97
2018-08-24T11:36:53.037Z,4.57
2018-08-24T11:39:21.476Z,3.33
2018-08-24T11:41:49.969Z,3.97
2018-08-24T11:44:18.367Z,3.80
2018-08-24T11:46:46.826Z,2.90
2018-08-24T11:49:15.255Z,2.83
2018-08-24T11:51:43.752Z,2.97
2018-08-24T11:54:12.361Z,3.47
2018-08-24T11:56:40.735Z,4.50
2018-08-24T11:59:09.217Z,6.33
2018-08-24T12:01:37.664Z,3.03
2018-08-24T12:04:09.942Z,3.80
2018-08-24T12:06:38.350Z,2.03
2018-08-24T12:09:08.389Z,2.27
2018-08-24T12:11:37.080Z,4.90
2018-08-24T12:14:05.588Z,4.03
2018-08-24T12:16:33.968Z,3.87
2018-08-24T12:19:02.415Z,2.77
2018-08-24T12:21:30.851Z,3.73
2018-08-24T12:23:59.303Z,4.00
2018-08-24T12:26:27.752Z,4.47
2018-08-24T12:28:56.127Z,3.87
2018-08-24T12:31:24.530Z,2.80
2018-08-24T12:33:52.975Z,3.60
2018-08-24T12:36:21.413Z,2.97
2018-08-24T12:38:49.820Z,5.27
2018-08-24T12:41:18.377Z,3.80
2018-08-24T12:43:46.817Z,2.47
2018-08-24T12:46:15.459Z,1.77
2018-08-24T12:48:43.856Z,3.13
2018-08-24T12:51:12.284Z,3.40
2018-08-24T12:53:40.683Z,4.70
2018-08-24T12:56:14.122Z,3.97
2018-08-24T12:58:46.471Z,2.60
2018-08-24T13:01:15.014Z,4.90
2018-08-24T13:03:43.763Z,2.97
2018-08-24T13:06:14.299Z,2.93
2018-08-24T13:08:43.677Z,3.57
2018-08-24T13:11:12.407Z,5.73
2018-08-24T13:13:40.962Z,4.17
2018-08-24T13:16:09.413Z,5.10
2018-08-24T13:18:38.060Z,5.50
2018-08-24T13:21:06.704Z,2.67
2018-08-24T13:23:35.632Z,4.47
2018-08-24T13:26:04.063Z,3.37
2018-08-24T13:28:32.470Z,2.57
2018-08-24T13:31:00.939Z,3.40
2018-08-24T13:33:29.383Z,2.73
2018-08-24T13:35:57.817Z,3.70
2018-08-24T13:38:26.251Z,3.93
2018-08-24T13:40:54.675Z,3.63
2018-08-24T13:43:23.089Z,3.67
2018-08-24T13:45:51.525Z,4.00
2018-08-24T13:48:19.934Z,3.53
2018-08-24T13:50:48.349Z,8.47
2018-08-24T13:53:16.760Z,3.33
2018-08-24T13:55:45.204Z,4.00
2018-08-24T13:58:13.674Z,3.73
2018-08-24T14:00:42.213Z,4.03
2018-08-24T14:03:10.636Z,3.17
2018-08-24T14:05:39.043Z,4.93
2018-08-24T14:08:07.687Z,5.33
2018-08-24T14:10:36.088Z,3.83
2018-08-24T14:13:04.568Z,2.60
2018-08-24T14:15:32.955Z,5.00
2018-08-24T14:18:01.389Z,3.30
2018-08-24T14:20:29.816Z,3.47
2018-08-24T14:22:58.227Z,3.60
2018-08-24T14:25:26.650Z,6.20
2018-08-24T14:27:55.075Z,4.33
2018-08-24T14:30:23.495Z,3.47
2018-08-24T14:32:51.876Z,3.20
2018-08-24T14:35:20.271Z,4.77
2018-08-24T14:37:48.699Z,5.47
2018-08-24T14:40:17.116Z,3.33
2018-08-24T14:42:45.524Z,4.40
2018-08-24T14:45:13.935Z,3.03
2018-08-24T14:47:42.344Z,3.47
2018-08-24T14:50:10.740Z,3.07
2018-08-24T14:52:39.149Z,2.43
2018-08-24T14:55:07.600Z,2.80
2018-08-24T14:57:36.051Z,5.57
2018-08-24T15:00:04.927Z,3.37
2018-08-24T15:02:33.396Z,2.37
2018-08-24T15:05:02.159Z,2.87
2018-08-24T15:07:30.582Z,2.60
2018-08-24T15:09:59.340Z,2.03
2018-08-24T15:12:27.722Z,4.70
2018-08-24T15:14:56.155Z,2.00
2018-08-24T15:17:24.575Z,2.87
2018-08-24T15:19:52.981Z,2.70
2018-08-24T15:22:21.466Z,2.97
2018-08-24T15:24:49.876Z,4.47
2018-08-24T15:27:18.313Z,2.70
2018-08-24T15:29:46.807Z,3.10
2018-08-24T15:32:15.179Z,2.83
2018-08-24T15:34:43.582Z,3.60
2018-08-24T15:37:11.982Z,4.23
2018-08-24T15:39:40.440Z,2.97
2018-08-24T15:42:08.798Z,5.37
2018-08-24T15:44:37.214Z,4.13
2018-08-24T15:47:05.627Z,2.70
2018-08-24T15:49:34.032Z,3.60
2018-08-24T15:52:02.467Z,5.43
2018-08-24T15:54:30.923Z,2.70
2018-08-24T15:56:59.301Z,3.17
2018-08-24T15:59:27.755Z,4.83
2018-08-24T16:01:56.139Z,1.97
2018-08-24T16:04:24.555Z,4.60
2018-08-24T16:06:53.040Z,4.03
2018-08-24T16:09:21.463Z,3.73
2018-08-24T16:11:50.167Z,2.57
2018-08-24T16:14:18.715Z,4.87
2018-08-24T16:16:47.149Z,3.67
2018-08-24T16:19:15.540Z,2.53
2018-08-24T16:21:43.977Z,4.67
2018-08-24T16:24:12.403Z,2.83
2018-08-24T16:26:40.811Z,3.37
2018-08-24T16:29:09.242Z,3.80
2018-08-24T16:31:37.678Z,2.30
2018-08-24T16:34:06.092Z,1.83
2018-08-24T16:36:34.553Z,4.60
2018-08-24T16:39:03.463Z,3.87
2018-08-24T16:41:31.883Z,2.40
2018-08-24T16:44:00.276Z,4.17
2018-08-24T16:46:28.686Z,2.67
2018-08-24T16:48:57.099Z,1.73
2018-08-24T16:51:25.496Z,4.27
2018-08-24T16:53:53.880Z,3.10
2018-08-24T16:56:22.263Z,2.77
2018-08-24T16:58:50.672Z,2.77
2018-08-24T17:01:19.070Z,3.03
2018-08-24T17:03:47.521Z,2.83
2018-08-24T17:06:16.278Z,3.10
2018-08-24T17:08:44.659Z,3.93
2018-08-24T17:11:13.082Z,4.90
2018-08-24T17:13:44.787Z,3.30
2018-08-24T17:16:13.180Z,3.10
2018-08-24T17:18:41.570Z,4.13
2018-08-24T17:21:10.005Z,2.00
2018-08-24T17:23:38.457Z,4.40
2018-08-24T17:26:06.887Z,3.03
2018-08-24T17:28:35.337Z,3.87
2018-08-24T17:31:03.745Z,2.03
2018-08-24T17:33:32.159Z,4.00
2018-08-24T17:36:00.633Z,1.77
2018-08-24T17:38:29.087Z,2.00
2018-08-24T17:40:57.517Z,3.20
2018-08-24T17:43:25.967Z,1.33
2018-08-24T17:45:54.380Z,1.43
2018-08-24T17:48:22.820Z,2.07
2018-08-24T17:50:51.248Z,2.27
2018-08-24T17:53:19.678Z,2.23
2018-08-24T17:55:48.105Z,1.80
2018-08-24T17:58:16.524Z,2.03
2018-08-24T18:00:45.188Z,1.57
2018-08-24T18:03:13.640Z,3.60
2018-08-24T18:05:42.168Z,2.83
2018-08-24T18:08:10.566Z,2.17
2018-08-24T18:10:38.972Z,2.17
2018-08-24T18:13:07.383Z,3.17
2018-08-24T18:15:39.615Z,3.73
2018-08-24T18:18:08.055Z,2.73
2018-08-24T18:20:36.669Z,3.03
2018-08-24T18:23:05.096Z,2.97
2018-08-24T18:25:33.624Z,3.07
2018-08-24T18:28:02.041Z,1.57
2018-08-24T18:30:30.509Z,1.80
2018-08-24T18:32:58.988Z,1.67
2018-08-24T18:35:27.405Z,2.87
2018-08-24T18:37:55.815Z,1.80
2018-08-24T18:40:25.228Z,2.07
2018-08-24T18:42:53.629Z,2.60
2018-08-24T18:45:22.045Z,3.37
2018-08-24T18:47:50.472Z,1.63
2018-08-24T18:50:18.876Z,4.03
2018-08-24T18:52:47.285Z,2.30
2018-08-24T18:55:15.698Z,2.00
2018-08-24T18:57:44.158Z,2.30
2018-08-24T19:00:12.613Z,2.20
2018-08-24T19:02:41.108Z,2.93
2018-08-24T19:05:09.544Z,3.97
2018-08-24T19:07:37.940Z,1.50
2018-08-24T19:10:06.483Z,2.00
2018-08-24T19:12:34.967Z,3.23
2018-08-24T19:15:03.362Z,4.57
2018-08-24T19:17:37.187Z,3.30
2018-08-24T19:20:10.895Z,2.57
2018-08-24T19:22:43.080Z,2.00
2018-08-24T19:25:11.478Z,4.50
2018-08-24T19:27:45.375Z,2.00
2018-08-24T19:30:19.119Z,4.43
2018-08-24T19:32:47.635Z,3.13
2018-08-24T19:35:16.020Z,2.73
2018-08-24T19:37:44.415Z,1.77
2018-08-24T19:41:21.979Z,3.33
2018-08-24T19:43:50.421Z,3.07
2018-08-24T19:46:18.791Z,2.23
2018-08-24T19:48:52.584Z,2.63
2018-08-24T19:51:21.002Z,3.60
2018-08-24T19:53:49.426Z,2.23
2018-08-24T19:56:17.846Z,2.20
2018-08-24T19:58:51.562Z,4.90
2018-08-24T20:01:19.996Z,3.60
2018-08-24T20:03:48.388Z,3.23
2018-08-24T20:06:22.291Z,2.53
2018-08-24T20:08:56.263Z,3.17
2018-08-24T20:11:28.631Z,3.83
2018-08-24T20:13:57.084Z,4.93
2018-08-24T20:16:31.024Z,3.93
2018-08-24T20:18:59.607Z,3.70
2018-08-24T20:21:28.023Z,3.13
2018-08-24T20:23:56.489Z,2.80
2018-08-24T20:26:24.935Z,3.27
2018-08-24T20:28:53.439Z,2.43
2018-08-24T20:31:22.049Z,2.20
2018-08-24T20:40:36.836Z,3.60
2018-08-24T20:43:05.611Z,4.73
2018-08-24T20:45:34.004Z,3.40
2018-08-24T20:48:02.885Z,2.70
2018-08-24T20:50:31.315Z,3.83
2018-08-24T20:52:59.829Z,3.13
2018-08-24T20:55:28.338Z,2.03
2018-08-24T20:57:56.744Z,3.17
2018-08-24T21:00:25.184Z,2.83
2018-08-24T21:02:53.631Z,3.47
2018-08-24T21:05:22.061Z,3.80
2018-08-24T21:07:50.516Z,4.13
2018-08-24T21:10:19.161Z,4.90
2018-08-24T21:12:47.567Z,4.47
2018-08-24T21:15:15.971Z,4.63
2018-08-24T21:17:44.384Z,3.03
2018-08-24T21:20:12.887Z,5.33
2018-08-24T21:22:41.326Z,3.27
2018-08-24T21:25:09.885Z,3.10
2018-08-24T21:27:38.290Z,5.33
2018-08-24T21:30:06.759Z,4.50
2018-08-24T21:32:35.159Z,4.77
2018-08-24T21:35:03.557Z,4.20
2018-08-24T21:37:31.991Z,5.70
2018-08-24T21:40:00.424Z,4.43
2018-08-24T21:42:28.859Z,4.90
2018-08-24T21:44:57.247Z,4.47
2018-08-24T21:47:25.668Z,3.33
2018-08-24T21:49:54.060Z,6.30
2018-08-24T21:52:22.461Z,4.83
2018-08-24T21:54:50.879Z,3.37
2018-08-24T21:57:19.272Z,4.57
2018-08-24T21:59:47.675Z,3.80
2018-08-24T22:02:16.071Z,3.70
2018-08-24T22:04:44.500Z,4.07
2018-08-24T22:07:12.920Z,5.47
2018-08-24T22:09:41.360Z,3.80
2018-08-24T22:12:10.042Z,3.50
2018-08-24T22:14:38.491Z,3.87
2018-08-24T22:17:06.928Z,3.60
2018-08-24T22:19:35.371Z,4.97
2018-08-24T22:22:03.935Z,4.03
2018-08-24T22:24:32.379Z,5.43
2018-08-24T22:27:00.777Z,3.37
2018-08-24T22:29:29.199Z,4.13
2018-08-24T22:31:57.658Z,3.63
2018-08-24T22:34:26.097Z,3.93
2018-08-24T22:36:54.526Z,4.60
2018-08-24T22:39:22.946Z,4.63
2018-08-24T22:41:51.400Z,4.30
2018-08-24T22:44:19.799Z,4.53
2018-08-24T22:46:48.240Z,3.87
2018-08-24T22:49:16.683Z,4.13
2018-08-24T22:51:45.103Z,5.37
2018-08-24T22:54:13.524Z,3.60
2018-08-24T22:56:42.007Z,4.63
2018-08-24T22:59:10.443Z,3.53
2018-08-24T23:01:38.863Z,3.53
2018-08-24T23:04:07.277Z,4.20
2018-08-24T23:06:35.693Z,2.73
2018-08-24T23:09:06.012Z,4.57
2018-08-24T23:11:34.448Z,3.50
2018-08-24T23:14:02.895Z,2.63
2018-08-24T23:16:31.339Z,3.87
2018-08-24T23:18:59.779Z,3.47
2018-08-24T23:21:28.217Z,3.23
2018-08-24T23:24:00.081Z,3.10
2018-08-24T23:26:28.480Z,3.53
2018-08-24T23:28:56.945Z,3.13
2018-08-24T23:31:25.375Z,3.90
2018-08-24T23:33:53.796Z,3.37
2018-08-24T23:36:22.277Z,4.53
2018-08-24T23:38:50.697Z,3.47
2018-08-24T23:41:19.096Z,2.90
2018-08-24T23:43:47.547Z,1.93
2018-08-24T23:46:15.990Z,2.80
2018-08-24T23:48:44.435Z,2.37
2018-08-24T23:51:12.851Z,3.27
2018-08-24T23:53:41.364Z,1.77
2018-08-24T23:56:09.789Z,1.97
2018-08-24T23:58:38.231Z,3.83
